Anderson, Nebraska
Current Conditions -  °F | °C
As of 3:35 PM on Saturday 20 Dec 2014 (Local Time) from KHDE Reporting Station
Clear Clear  
Wind Chill:   Ceiling: Unl
Heat Index:   Visibility: 10mi
Dew Point:   Wind: 3mph
Humidity: 75%   Direction: 200°SSW
Pressure: 29.97"   Gusts: NA
Location:  40.5251°N, 99.2414°W
Report Text: KHDE 202135Z AUTO 20003KT 10SM CLR 04/00 A2997 RMK AO2 T00420001
Loading
Personal Weather Stations






























Interactive Weather Map New forecast layout! Learn more

10-Day Weather Forecast

Advertisements
Track Severe Weather on mobile